Time;durP1;ratioP1;P1;durP2;ratioP2;P2;SDS_P1;SDS_P2;PMS_P1;PMS_P2;Temp;Humidity;BMP_temperature;BMP_pressure;BME280_temperature;BME280_humidity;BME280_pressure;Samples;Min_cycle;Max_cycle;Signal;HPM_P1;HPM_P2
2022/01/04 00:02:13;;;;;;;;;;;24.00;53.80;;;;;;5057857;28;1002;-43
2022/01/04 00:04:40;;;;;;;;;;;23.90;53.90;;;;;;5059413;28;997;-42
2022/01/04 00:07:06;;;;;;;;;;;24.00;54.00;;;;;;5059419;28;1989;-44
2022/01/04 00:09:39;;;;;;;;;;;23.90;54.00;;;;;;5059686;28;1009;-41
2022/01/04 00:14:47;;;;;;;;;;;23.90;54.00;;;;;;5059133;28;1337;-43
2022/01/04 00:17:14;;;;;;;;;;;23.90;53.90;;;;;;5058938;28;985;-42
2022/01/04 00:19:41;;;;;;;;;;;23.90;54.00;;;;;;5059171;28;985;-44
2022/01/04 00:22:08;;;;;;;;;;;23.90;54.00;;;;;;5058960;28;929;-41
2022/01/04 00:24:36;;;;;;;;;;;23.90;53.90;;;;;;5059370;28;935;-43
2022/01/04 00:27:03;;;;;;;;;;;23.90;54.00;;;;;;5059167;28;1972;-41
2022/01/04 00:29:30;;;;;;;;;;;23.90;53.90;;;;;;5058958;28;1005;-43
2022/01/04 00:31:56;;;;;;;;;;;23.90;53.90;;;;;;5058911;28;930;-41
2022/01/04 00:34:23;;;;;;;;;;;23.90;53.90;;;;;;5058858;28;946;-41
2022/01/04 00:36:50;;;;;;;;;;;23.90;53.80;;;;;;5059088;28;1004;-41
2022/01/04 00:39:17;;;;;;;;;;;23.90;53.90;;;;;;5058995;28;990;-44
2022/01/04 00:41:45;;;;;;;;;;;24.00;53.70;;;;;;5059002;28;925;-45
2022/01/04 00:44:11;;;;;;;;;;;24.00;53.70;;;;;;5058340;28;1024;-43
2022/01/04 00:46:38;;;;;;;;;;;24.00;53.80;;;;;;5058301;28;1906;-44
2022/01/04 00:49:11;;;;;;;;;;;24.00;53.90;;;;;;5058809;28;949;-43
2022/01/04 00:51:38;;;;;;;;;;;24.00;53.80;;;;;;5058766;28;946;-42
2022/01/04 00:54:05;;;;;;;;;;;24.00;53.90;;;;;;5058873;28;989;-42
2022/01/04 00:56:32;;;;;;;;;;;24.00;55.10;;;;;;5058168;28;1202;-42
2022/01/04 00:59:00;;;;;;;;;;;24.00;54.00;;;;;;5058943;28;930;-45
2022/01/04 01:01:27;;;;;;;;;;;24.00;53.90;;;;;;5058059;28;994;-44
2022/01/04 01:03:54;;;;;;;;;;;24.00;54.10;;;;;;5059154;28;1025;-43
2022/01/04 01:06:21;;;;;;;;;;;24.00;54.00;;;;;;5058755;28;1906;-43
2022/01/04 01:08:48;;;;;;;;;;;23.90;54.10;;;;;;5058295;28;1021;-41
2022/01/04 01:11:15;;;;;;;;;;;23.90;54.00;;;;;;5058336;28;1008;-42
2022/01/04 01:13:43;;;;;;;;;;;23.90;54.00;;;;;;5058350;28;1058;-43
2022/01/04 01:16:11;;;;;;;;;;;23.90;54.10;;;;;;5058526;28;1021;-41
2022/01/04 01:18:38;;;;;;;;;;;23.90;54.20;;;;;;5058251;28;1005;-41
2022/01/04 01:21:05;;;;;;;;;;;23.80;54.20;;;;;;5058407;28;1001;-44
2022/01/04 01:23:32;;;;;;;;;;;23.80;54.20;;;;;;5057903;28;1014;-41
2022/01/04 01:26:00;;;;;;;;;;;23.90;54.20;;;;;;5058376;28;1898;-42
2022/01/04 01:28:27;;;;;;;;;;;23.90;54.20;;;;;;5058391;28;934;-44
2022/01/04 01:30:53;;;;;;;;;;;23.80;54.20;;;;;;5058155;28;980;-42
2022/01/04 01:33:23;;;;;;;;;;;23.80;54.30;;;;;;5058317;28;993;-40
2022/01/04 01:35:50;;;;;;;;;;;23.80;54.20;;;;;;5057798;28;1242;-42
2022/01/04 01:38:19;;;;;;;;;;;23.80;54.30;;;;;;5058741;28;997;-41
2022/01/04 01:40:46;;;;;;;;;;;23.80;54.30;;;;;;5058489;28;1046;-42
2022/01/04 01:43:13;;;;;;;;;;;23.70;54.30;;;;;;5058174;28;1047;-44
2022/01/04 01:45:40;;;;;;;;;;;23.70;54.30;;;;;;5057604;28;1980;-43
2022/01/04 01:48:07;;;;;;;;;;;23.70;54.40;;;;;;5058086;28;957;-42
2022/01/04 01:50:35;;;;;;;;;;;23.70;54.40;;;;;;5058058;28;1028;-41
2022/01/04 01:53:02;;;;;;;;;;;23.70;54.40;;;;;;5057424;28;1026;-41
2022/01/04 01:55:29;;;;;;;;;;;23.80;54.60;;;;;;5058029;28;1086;-42
2022/01/04 01:57:56;;;;;;;;;;;23.70;54.50;;;;;;5057775;28;1833;-44
2022/01/04 02:00:24;;;;;;;;;;;23.70;54.40;;;;;;5058707;28;958;-42
2022/01/04 02:02:50;;;;;;;;;;;23.70;54.30;;;;;;5057966;28;989;-42
2022/01/04 02:05:17;;;;;;;;;;;23.70;54.30;;;;;;5058147;28;1153;-44
2022/01/04 02:07:45;;;;;;;;;;;23.80;54.50;;;;;;5057634;28;1983;-41
2022/01/04 02:10:12;;;;;;;;;;;23.70;54.60;;;;;;5057887;28;953;-41
2022/01/04 02:12:40;;;;;;;;;;;23.70;54.50;;;;;;5058459;28;950;-43
2022/01/04 02:15:08;;;;;;;;;;;23.70;54.50;;;;;;5058261;28;1005;-41
2022/01/04 02:17:35;;;;;;;;;;;23.70;54.60;;;;;;5058009;28;945;-40
2022/01/04 02:20:04;;;;;;;;;;;23.70;54.60;;;;;;5058269;28;952;-42
2022/01/04 02:22:31;;;;;;;;;;;23.70;54.70;;;;;;5058455;28;920;-40
2022/01/04 02:24:58;;;;;;;;;;;23.60;54.70;;;;;;5057636;28;950;-41
2022/01/04 02:27:25;;;;;;;;;;;23.60;54.70;;;;;;5057365;28;1906;-43
2022/01/04 02:29:52;;;;;;;;;;;23.60;54.70;;;;;;5057820;28;976;-42
2022/01/04 02:32:19;;;;;;;;;;;23.70;54.80;;;;;;5057983;28;917;-44
2022/01/04 02:34:48;;;;;;;;;;;23.60;54.90;;;;;;5057807;28;1011;-42
2022/01/04 02:37:18;;;;;;;;;;;23.60;54.80;;;;;;5057954;28;1000;-45
2022/01/04 02:39:45;;;;;;;;;;;23.60;54.90;;;;;;5057737;28;992;-42
2022/01/04 02:42:12;;;;;;;;;;;23.50;54.80;;;;;;5057550;28;1013;-43
2022/01/04 02:44:38;;;;;;;;;;;23.50;54.80;;;;;;5057376;28;1028;-44
2022/01/04 02:47:05;;;;;;;;;;;23.60;54.90;;;;;;5060092;28;1906;-42
2022/01/04 02:49:32;;;;;;;;;;;23.60;55.00;;;;;;5060844;28;986;-44
2022/01/04 02:51:59;;;;;;;;;;;23.60;54.90;;;;;;5060736;28;994;-43
2022/01/04 02:54:27;;;;;;;;;;;23.50;54.90;;;;;;5060601;28;956;-45
2022/01/04 02:56:54;;;;;;;;;;;23.50;54.90;;;;;;5060922;28;970;-42
2022/01/04 02:59:20;;;;;;;;;;;23.50;54.90;;;;;;5060938;28;945;-44
2022/01/04 03:01:47;;;;;;;;;;;23.50;54.90;;;;;;5060909;28;1042;-44
2022/01/04 03:04:14;;;;;;;;;;;23.50;55.00;;;;;;5060989;28;1071;-42
2022/01/04 03:06:41;;;;;;;;;;;23.50;54.80;;;;;;5061004;28;1963;-43
2022/01/04 03:09:08;;;;;;;;;;;23.50;54.90;;;;;;5060619;28;933;-42
2022/01/04 03:11:36;;;;;;;;;;;23.50;55.00;;;;;;5060794;28;972;-45
2022/01/04 03:14:03;;;;;;;;;;;23.60;55.00;;;;;;5060723;28;989;-42
2022/01/04 03:16:30;;;;;;;;;;;23.50;55.00;;;;;;5061142;28;1128;-42
2022/01/04 03:19:05;;;;;;;;;;;23.50;55.00;;;;;;5060666;28;1020;-41
2022/01/04 03:21:33;;;;;;;;;;;23.50;55.00;;;;;;5061135;28;991;-41
2022/01/04 03:24:00;;;;;;;;;;;23.50;56.10;;;;;;5060377;28;955;-41
2022/01/04 03:26:27;;;;;;;;;;;23.50;54.90;;;;;;5060436;28;1981;-42
2022/01/04 03:28:55;;;;;;;;;;;23.50;54.90;;;;;;5060619;28;949;-42
2022/01/04 03:31:22;;;;;;;;;;;23.50;54.80;;;;;;5060493;28;1021;-43
2022/01/04 03:33:48;;;;;;;;;;;23.60;54.80;;;;;;5060242;28;1040;-42
2022/01/04 03:36:15;;;;;;;;;;;23.60;54.80;;;;;;5060904;28;973;-41
2022/01/04 03:38:42;;;;;;;;;;;23.60;54.80;;;;;;5060608;28;946;-42
2022/01/04 03:41:09;;;;;;;;;;;23.50;54.80;;;;;;5060280;28;1095;-43
2022/01/04 03:43:37;;;;;;;;;;;23.60;54.90;;;;;;5060040;28;1021;-42
2022/01/04 03:46:07;;;;;;;;;;;23.60;54.80;;;;;;5060083;28;957;-43
2022/01/04 03:48:34;;;;;;;;;;;23.60;54.80;;;;;;5059858;28;1914;-45
2022/01/04 03:51:01;;;;;;;;;;;23.60;54.80;;;;;;5060231;28;972;-40
2022/01/04 03:53:27;;;;;;;;;;;23.50;54.70;;;;;;5060066;28;1012;-42
2022/01/04 03:55:54;;;;;;;;;;;23.50;54.80;;;;;;5059769;28;1013;-45
2022/01/04 03:58:21;;;;;;;;;;;23.60;54.90;;;;;;5059554;28;994;-42
2022/01/04 04:00:48;;;;;;;;;;;23.50;54.80;;;;;;5059775;28;1027;-42
2022/01/04 04:03:16;;;;;;;;;;;23.50;54.80;;;;;;5059981;28;853;-41
2022/01/04 04:05:43;;;;;;;;;;;23.50;54.80;;;;;;5059532;28;1823;-42
2022/01/04 04:08:10;;;;;;;;;;;23.50;54.80;;;;;;5059778;28;1897;-42
2022/01/04 04:10:37;;;;;;;;;;;23.50;54.90;;;;;;5059773;28;968;-45
2022/01/04 04:13:03;;;;;;;;;;;23.50;54.90;;;;;;5060107;28;950;-42
2022/01/04 04:15:31;;;;;;;;;;;23.60;54.90;;;;;;5059576;28;1006;-42
2022/01/04 04:17:57;;;;;;;;;;;23.50;54.90;;;;;;5059381;28;1017;-43
2022/01/04 04:20:25;;;;;;;;;;;23.50;54.90;;;;;;5059368;28;947;-45
2022/01/04 04:22:52;;;;;;;;;;;23.50;54.80;;;;;;5058783;28;941;-40
2022/01/04 04:25:19;;;;;;;;;;;23.50;55.00;;;;;;5059283;28;1019;-45
2022/01/04 04:27:46;;;;;;;;;;;23.50;56.00;;;;;;5059194;28;1981;-36
2022/01/04 04:30:13;;;;;;;;;;;23.50;55.00;;;;;;5059338;28;983;-36
2022/01/04 04:32:39;;;;;;;;;;;23.50;55.00;;;;;;5058970;28;995;-36
2022/01/04 04:35:06;;;;;;;;;;;23.50;54.90;;;;;;5059256;28;1008;-36
2022/01/04 04:37:34;;;;;;;;;;;23.50;55.00;;;;;;5058817;28;993;-36
2022/01/04 04:40:01;;;;;;;;;;;23.50;55.00;;;;;;5058862;28;1862;-36
2022/01/04 04:42:28;;;;;;;;;;;23.50;54.90;;;;;;5058602;28;1851;-36
2022/01/04 04:44:55;;;;;;;;;;;23.50;55.00;;;;;;5058879;28;1018;-36
2022/01/04 04:47:21;;;;;;;;;;;23.50;54.90;;;;;;5058831;28;1898;-36
2022/01/04 04:49:48;;;;;;;;;;;23.50;54.90;;;;;;5058623;28;973;-38
2022/01/04 04:52:15;;;;;;;;;;;23.50;54.90;;;;;;5058468;28;974;-36
2022/01/04 04:54:43;;;;;;;;;;;23.50;54.90;;;;;;5058650;28;1013;-37
2022/01/04 04:57:10;;;;;;;;;;;23.50;54.80;;;;;;5058617;28;954;-38
2022/01/04 04:59:37;;;;;;;;;;;23.50;54.90;;;;;;5058593;28;934;-36
2022/01/04 05:02:07;;;;;;;;;;;23.50;54.90;;;;;;5058921;28;990;-36
2022/01/04 05:04:33;;;;;;;;;;;23.50;54.80;;;;;;5058428;28;1049;-36
2022/01/04 05:07:00;;;;;;;;;;;23.50;54.80;;;;;;5058063;28;1977;-36
2022/01/04 05:09:27;;;;;;;;;;;23.50;54.80;;;;;;5058172;28;993;-36
2022/01/04 05:11:55;;;;;;;;;;;23.50;54.90;;;;;;5058110;28;1053;-37
2022/01/04 05:14:22;;;;;;;;;;;23.50;55.00;;;;;;5058378;28;973;-36
2022/01/04 05:16:49;;;;;;;;;;;23.60;54.90;;;;;;5058295;28;1028;-36
2022/01/04 05:19:15;;;;;;;;;;;23.50;54.90;;;;;;5058367;28;970;-37
2022/01/04 05:21:42;;;;;;;;;;;23.50;54.90;;;;;;5058382;28;988;-36
2022/01/04 05:24:09;;;;;;;;;;;23.50;54.90;;;;;;5058016;28;1027;-36
2022/01/04 05:26:36;;;;;;;;;;;23.50;55.00;;;;;;5057930;28;1006;-37
2022/01/04 05:29:04;;;;;;;;;;;23.50;55.00;;;;;;5057793;28;1902;-36
2022/01/04 05:31:31;;;;;;;;;;;23.50;55.00;;;;;;5058311;28;1085;-36
2022/01/04 05:33:57;;;;;;;;;;;23.50;55.00;;;;;;5058484;28;992;-36
2022/01/04 05:36:24;;;;;;;;;;;23.50;55.00;;;;;;5058054;28;973;-36
2022/01/04 05:38:51;;;;;;;;;;;23.50;55.00;;;;;;5057381;28;1872;-36
2022/01/04 05:41:18;;;;;;;;;;;23.50;55.10;;;;;;5057710;28;975;-36
2022/01/04 05:43:46;;;;;;;;;;;23.50;55.10;;;;;;5057507;28;1001;-37
2022/01/04 05:46:14;;;;;;;;;;;23.50;55.00;;;;;;5058027;28;945;-36
2022/01/04 05:48:41;;;;;;;;;;;23.40;55.10;;;;;;5057576;28;2009;-36
2022/01/04 05:51:08;;;;;;;;;;;23.50;55.10;;;;;;5057281;28;989;-36
2022/01/04 05:53:34;;;;;;;;;;;23.40;55.10;;;;;;5056855;28;946;-36
2022/01/04 05:56:01;;;;;;;;;;;23.50;55.10;;;;;;5056736;28;971;-35
2022/01/04 05:58:28;;;;;;;;;;;23.50;54.80;;;;;;5057619;28;1003;-34
2022/01/04 06:00:55;;;;;;;;;;;23.50;54.80;;;;;;5057414;28;986;-34
2022/01/04 06:03:23;;;;;;;;;;;23.40;54.90;;;;;;5056810;28;1009;-34
2022/01/04 06:05:49;;;;;;;;;;;23.40;55.10;;;;;;5057335;28;1265;-37
2022/01/04 06:08:16;;;;;;;;;;;23.30;55.10;;;;;;5056326;28;1964;-37
2022/01/04 06:10:44;;;;;;;;;;;23.30;55.00;;;;;;5057493;28;983;-36
2022/01/04 06:15:54;;;;;;;;;;;23.30;55.40;;;;;;5056667;28;891;-37
2022/01/04 06:18:23;;;;;;;;;;;23.30;55.60;;;;;;5056624;28;938;-37
2022/01/04 06:20:50;;;;;;;;;;;23.30;55.40;;;;;;5057746;28;1878;-38
2022/01/04 06:23:17;;;;;;;;;;;23.30;55.40;;;;;;5061450;28;948;-34
2022/01/04 06:25:44;;;;;;;;;;;23.40;55.50;;;;;;5060241;28;930;-35
2022/01/04 06:28:11;;;;;;;;;;;23.40;55.30;;;;;;5060941;28;1914;-34
2022/01/04 06:30:38;;;;;;;;;;;23.40;55.20;;;;;;5060417;28;998;-35
2022/01/04 06:33:05;;;;;;;;;;;23.40;55.30;;;;;;5060719;28;942;-33
2022/01/04 06:35:35;;;;;;;;;;;23.50;55.50;;;;;;5060542;28;1022;-35
2022/01/04 06:38:02;;;;;;;;;;;23.50;55.50;;;;;;5060340;28;972;-35
2022/01/04 06:40:29;;;;;;;;;;;23.50;55.20;;;;;;5059814;28;926;-35
2022/01/04 06:42:56;;;;;;;;;;;23.40;55.60;;;;;;5059928;28;933;-35
2022/01/04 06:45:22;;;;;;;;;;;23.30;55.70;;;;;;5060230;28;993;-36
2022/01/04 06:47:49;;;;;;;;;;;23.30;55.90;;;;;;5059891;28;1898;-36
2022/01/04 06:50:18;;;;;;;;;;;23.30;56.00;;;;;;5060124;28;980;-36
2022/01/04 06:52:46;;;;;;;;;;;23.30;55.60;;;;;;5060103;28;887;-35
2022/01/04 06:55:14;;;;;;;;;;;23.30;55.50;;;;;;5060159;28;1034;-35
2022/01/04 06:57:40;;;;;;;;;;;23.30;55.20;;;;;;5059258;28;1029;-36
2022/01/04 07:00:08;;;;;;;;;;;23.20;54.90;;;;;;5057778;28;978;-36
2022/01/04 07:02:34;;;;;;;;;;;23.30;53.40;;;;;;5059061;28;1028;-36
2022/01/04 07:05:01;;;;;;;;;;;23.30;52.80;;;;;;5059596;28;961;-35
2022/01/04 07:07:28;;;;;;;;;;;23.20;52.50;;;;;;5058936;28;1963;-36
2022/01/04 07:09:56;;;;;;;;;;;23.20;52.20;;;;;;5059069;28;1021;-35
2022/01/04 07:12:23;;;;;;;;;;;23.10;52.10;;;;;;5058653;28;962;-35
2022/01/04 07:14:49;;;;;;;;;;;23.10;51.70;;;;;;5058064;28;981;-34
2022/01/04 07:17:16;;;;;;;;;;;23.10;51.80;;;;;;5059452;28;954;-36
2022/01/04 07:19:43;;;;;;;;;;;23.10;52.10;;;;;;5058755;28;1014;-36
2022/01/04 07:22:10;;;;;;;;;;;23.10;52.90;;;;;;5058847;28;1025;-37
2022/01/04 07:24:37;;;;;;;;;;;23.20;52.30;;;;;;5059086;28;970;-35
2022/01/04 07:27:05;;;;;;;;;;;23.20;52.70;;;;;;5059770;28;965;-36
2022/01/04 07:29:32;;;;;;;;;;;23.10;53.00;;;;;;5059523;28;1994;-40
2022/01/04 07:31:59;;;;;;;;;;;23.10;52.80;;;;;;5058528;28;890;-39
2022/01/04 07:34:26;;;;;;;;;;;23.10;52.40;;;;;;5058294;28;1009;-41
2022/01/04 07:36:52;;;;;;;;;;;23.20;52.50;;;;;;5058530;28;950;-42
2022/01/04 07:39:19;;;;;;;;;;;23.10;53.10;;;;;;5058666;28;1013;-40
2022/01/04 07:41:45;;;;;;;;;;;23.10;53.50;;;;;;5058529;28;994;-40
2022/01/04 07:44:13;;;;;;;;;;;23.10;53.50;;;;;;5057259;28;970;-41
2022/01/04 07:46:40;;;;;;;;;;;23.20;53.50;;;;;;5058477;28;946;-40
2022/01/04 07:49:07;;;;;;;;;;;23.20;53.80;;;;;;5058015;28;1906;-39
2022/01/04 07:51:34;;;;;;;;;;;23.20;53.90;;;;;;5057954;28;987;-39
2022/01/04 07:54:01;;;;;;;;;;;23.10;53.90;;;;;;5057573;28;953;-42
2022/01/04 07:56:28;;;;;;;;;;;23.20;54.00;;;;;;5057061;28;909;-42
2022/01/04 07:59:00;;;;;;;;;;;23.20;54.00;;;;;;5057934;28;934;-39
2022/01/04 08:01:29;;;;;;;;;;;23.20;54.20;;;;;;5057998;28;1106;-39
2022/01/04 08:03:56;;;;;;;;;;;23.20;54.20;;;;;;5058301;28;996;-43
2022/01/04 08:06:23;;;;;;;;;;;23.20;54.30;;;;;;5057671;28;1186;-40
2022/01/04 08:08:50;;;;;;;;;;;23.10;54.30;;;;;;5057120;28;1983;-39
2022/01/04 08:11:18;;;;;;;;;;;23.20;54.50;;;;;;5057127;28;1002;-40
2022/01/04 08:13:45;;;;;;;;;;;23.20;54.40;;;;;;5056966;28;993;-40
2022/01/04 08:16:14;;;;;;;;;;;23.20;54.30;;;;;;5057034;28;933;-39
2022/01/04 08:18:42;;;;;;;;;;;23.20;54.50;;;;;;5058022;28;969;-40
2022/01/04 08:21:09;;;;;;;;;;;23.20;54.60;;;;;;5057825;28;1005;-40
2022/01/04 08:23:36;;;;;;;;;;;23.20;54.50;;;;;;5057258;28;1009;-40
2022/01/04 08:26:03;;;;;;;;;;;23.20;54.60;;;;;;5057497;28;989;-39
2022/01/04 08:28:30;;;;;;;;;;;23.20;54.70;;;;;;5057361;28;1975;-39
2022/01/04 08:30:57;;;;;;;;;;;23.20;54.60;;;;;;5057833;28;1018;-39
2022/01/04 08:33:24;;;;;;;;;;;23.20;54.60;;;;;;5057568;28;1012;-39
2022/01/04 08:35:52;;;;;;;;;;;23.20;54.80;;;;;;5058124;28;931;-41
2022/01/04 08:38:19;;;;;;;;;;;23.20;54.80;;;;;;5057630;28;1013;-39
2022/01/04 08:40:45;;;;;;;;;;;23.20;54.80;;;;;;5057127;28;1012;-39
2022/01/04 08:43:12;;;;;;;;;;;23.20;54.80;;;;;;5056804;28;934;-41
2022/01/04 08:45:39;;;;;;;;;;;23.20;54.80;;;;;;5057912;28;1001;-41
2022/01/04 08:48:06;;;;;;;;;;;23.20;54.80;;;;;;5056583;28;1902;-39
2022/01/04 08:50:33;;;;;;;;;;;23.20;54.80;;;;;;5057036;28;938;-39
2022/01/04 08:53:02;;;;;;;;;;;23.20;54.90;;;;;;5057525;28;1016;-39
2022/01/04 08:55:28;;;;;;;;;;;23.20;55.00;;;;;;5057357;28;1012;-39
2022/01/04 08:57:55;;;;;;;;;;;23.20;55.00;;;;;;5057723;28;949;-41
2022/01/04 09:00:22;;;;;;;;;;;23.20;55.10;;;;;;5057424;28;1063;-39
2022/01/04 09:02:48;;;;;;;;;;;23.10;55.00;;;;;;5056853;28;993;-40
2022/01/04 09:05:15;;;;;;;;;;;23.10;55.00;;;;;;5056895;28;1085;-40
2022/01/04 09:07:42;;;;;;;;;;;23.10;55.10;;;;;;5056581;28;1247;-41
2022/01/04 09:10:10;;;;;;;;;;;23.10;55.10;;;;;;5056832;28;1980;-39
2022/01/04 09:12:48;;;;;;;;;;;23.10;55.10;;;;;;5056418;28;1116;-41
2022/01/04 09:15:30;;;;;;;;;;;23.10;55.10;;;;;;5056500;28;959;-39
2022/01/04 09:20:42;;;;;;;;;;;23.10;55.00;;;;;;5056702;28;893;-41
2022/01/04 09:23:09;;;;;;;;;;;23.20;55.30;;;;;;5056900;28;1025;-39
2022/01/04 09:25:37;;;;;;;;;;;23.10;55.10;;;;;;5056130;28;1028;-40
2022/01/04 09:28:04;;;;;;;;;;;23.10;55.10;;;;;;5056033;28;1013;-39
2022/01/04 09:30:31;;;;;;;;;;;23.10;55.30;;;;;;5055913;28;1001;-39
2022/01/04 09:32:59;;;;;;;;;;;23.10;55.20;;;;;;5056428;28;913;-40
2022/01/04 09:35:26;;;;;;;;;;;23.20;55.10;;;;;;5055636;28;945;-40
2022/01/04 09:37:53;;;;;;;;;;;23.10;55.30;;;;;;5055852;28;944;-39
2022/01/04 09:40:19;;;;;;;;;;;23.10;55.30;;;;;;5054709;28;974;-42
2022/01/04 09:42:49;;;;;;;;;;;23.10;55.30;;;;;;5056264;28;1868;-40
2022/01/04 09:45:16;;;;;;;;;;;23.20;55.30;;;;;;5055866;28;996;-39
2022/01/04 09:47:42;;;;;;;;;;;23.20;55.30;;;;;;5055976;28;1010;-39
2022/01/04 09:50:10;;;;;;;;;;;23.20;55.20;;;;;;5055368;28;1984;-40
2022/01/04 09:52:39;;;;;;;;;;;23.20;55.20;;;;;;5055351;28;956;-39
2022/01/04 09:55:07;;;;;;;;;;;23.20;55.10;;;;;;5055294;28;1164;-40
2022/01/04 09:57:33;;;;;;;;;;;23.20;55.10;;;;;;5058812;28;948;-40
2022/01/04 10:00:01;;;;;;;;;;;23.20;55.10;;;;;;5059355;28;1811;-39
2022/01/04 10:02:30;;;;;;;;;;;23.20;55.30;;;;;;5058837;28;941;-41
2022/01/04 10:05:12;;;;;;;;;;;23.10;55.10;;;;;;5060270;28;1040;-39
2022/01/04 10:07:39;;;;;;;;;;;23.10;55.20;;;;;;5060058;28;1132;-38
2022/01/04 10:10:06;;;;;;;;;;;23.10;55.40;;;;;;5058799;28;1913;-40
2022/01/04 10:12:48;;;;;;;;;;;23.10;55.50;;;;;;5059851;28;1038;-40
2022/01/04 10:15:28;;;;;;;;;;;23.10;55.50;;;;;;5059163;28;938;-41
2022/01/04 10:17:56;;;;;;;;;;;23.20;55.40;;;;;;5059657;28;893;-39
2022/01/04 10:20:23;;;;;;;;;;;23.20;55.10;;;;;;5058710;28;950;-40
2022/01/04 10:22:50;;;;;;;;;;;23.10;55.10;;;;;;5058608;28;996;-40
2022/01/04 10:25:19;;;;;;;;;;;23.10;55.30;;;;;;5058501;28;949;-42
2022/01/04 10:27:47;;;;;;;;;;;23.10;55.50;;;;;;5058438;28;1004;-39
2022/01/04 10:30:22;;;;;;;;;;;23.20;55.70;;;;;;5058767;28;1989;-41
2022/01/04 10:32:53;;;;;;;;;;;23.30;55.40;;;;;;5059194;28;1033;-40
2022/01/04 10:35:20;;;;;;;;;;;23.20;55.70;;;;;;5057905;28;993;-39
2022/01/04 10:37:47;;;;;;;;;;;23.10;55.60;;;;;;5059514;28;1002;-42
2022/01/04 10:40:14;;;;;;;;;;;23.10;55.60;;;;;;5057217;28;989;-42
2022/01/04 10:42:41;;;;;;;;;;;23.10;55.70;;;;;;5058921;28;945;-40
2022/01/04 10:45:22;;;;;;;;;;;23.10;55.80;;;;;;5059111;28;942;-40
2022/01/04 10:47:50;;;;;;;;;;;23.10;55.80;;;;;;5055900;28;990;-40
2022/01/04 10:50:28;;;;;;;;;;;23.10;55.80;;;;;;5058181;28;1905;-41
2022/01/04 10:52:55;;;;;;;;;;;23.10;55.60;;;;;;5058243;28;1037;-41
2022/01/04 10:55:22;;;;;;;;;;;23.10;55.70;;;;;;5058297;28;1013;-39
2022/01/04 10:57:49;;;;;;;;;;;23.10;55.60;;;;;;5058622;28;937;-41
2022/01/04 11:00:16;;;;;;;;;;;23.10;55.70;;;;;;5058313;28;1005;-43
2022/01/04 11:02:43;;;;;;;;;;;23.10;55.70;;;;;;5058660;28;970;-40
2022/01/04 11:05:15;;;;;;;;;;;23.10;55.50;;;;;;5057198;28;1077;-40
2022/01/04 11:07:57;;;;;;;;;;;23.10;55.20;;;;;;5057483;28;1080;-40
2022/01/04 11:10:24;;;;;;;;;;;23.10;55.30;;;;;;5058065;28;1982;-40
2022/01/04 11:12:51;;;;;;;;;;;23.10;55.60;;;;;;5058014;28;946;-39
2022/01/04 11:15:18;;;;;;;;;;;23.10;56.70;;;;;;5058288;28;1018;-40
2022/01/04 11:17:45;;;;;;;;;;;23.10;55.60;;;;;;5058382;28;934;-41
2022/01/04 11:20:12;;;;;;;;;;;23.10;55.60;;;;;;5058286;28;918;-40
2022/01/04 11:22:41;;;;;;;;;;;23.10;55.70;;;;;;5059274;28;1001;-40
2022/01/04 11:25:08;;;;;;;;;;;23.00;55.50;;;;;;5058431;28;1021;-40
2022/01/04 11:27:36;;;;;;;;;;;23.00;55.60;;;;;;5058034;28;994;-39
2022/01/04 11:30:04;;;;;;;;;;;23.00;55.60;;;;;;5058443;28;1989;-39
2022/01/04 11:32:32;;;;;;;;;;;23.00;55.50;;;;;;5056339;28;950;-39
2022/01/04 11:35:04;;;;;;;;;;;23.00;55.40;;;;;;5058185;28;1411;-40
2022/01/04 11:37:31;;;;;;;;;;;23.00;55.50;;;;;;5057979;28;976;-40
2022/01/04 11:40:00;;;;;;;;;;;23.00;55.60;;;;;;5058239;28;2030;-36
2022/01/04 11:42:38;;;;;;;;;;;23.00;55.60;;;;;;5057707;28;1005;-35
2022/01/04 11:45:06;;;;;;;;;;;23.00;55.50;;;;;;5058292;28;1005;-36
2022/01/04 11:47:34;;;;;;;;;;;23.00;55.50;;;;;;5058050;28;986;-36
2022/01/04 11:50:06;;;;;;;;;;;23.10;55.50;;;;;;5057366;28;1902;-35
2022/01/04 11:52:37;;;;;;;;;;;23.10;55.30;;;;;;5056829;28;1009;-36
2022/01/04 11:55:21;;;;;;;;;;;23.10;55.40;;;;;;5057321;28;1027;-35
2022/01/04 11:57:48;;;;;;;;;;;23.00;55.30;;;;;;5056404;28;926;-36
2022/01/04 12:00:24;;;;;;;;;;;23.10;55.40;;;;;;5057552;28;1013;-35
2022/01/04 12:03:02;;;;;;;;;;;23.10;55.70;;;;;;5056587;28;949;-36
2022/01/04 12:05:29;;;;;;;;;;;23.10;55.30;;;;;;5057591;28;1033;-36
2022/01/04 12:07:56;;;;;;;;;;;23.10;55.30;;;;;;5057335;28;1326;-35
2022/01/04 12:10:46;;;;;;;;;;;23.10;55.50;;;;;;5057730;28;1894;-36
2022/01/04 12:13:16;;;;;;;;;;;23.10;55.70;;;;;;5058012;28;974;-35
2022/01/04 12:15:53;;;;;;;;;;;23.10;55.70;;;;;;5057602;28;1005;-35
2022/01/04 12:18:38;;;;;;;;;;;23.00;55.70;;;;;;5056648;28;1017;-36
2022/01/04 12:21:17;;;;;;;;;;;23.00;55.70;;;;;;5057606;28;1005;-37
2022/01/04 12:23:45;;;;;;;;;;;23.00;55.60;;;;;;5056665;28;1025;-36
2022/01/04 12:26:21;;;;;;;;;;;23.00;55.50;;;;;;5056541;28;1009;-36
2022/01/04 12:29:03;;;;;;;;;;;23.00;55.60;;;;;;5056612;28;1013;-34
2022/01/04 12:31:33;;;;;;;;;;;23.00;55.50;;;;;;5054401;28;1094;-35
2022/01/04 12:34:01;;;;;;;;;;;23.00;55.50;;;;;;5056154;28;1099;-35
2022/01/04 12:36:28;;;;;;;;;;;23.00;55.50;;;;;;5056248;28;987;-37
2022/01/04 12:38:56;;;;;;;;;;;23.00;55.50;;;;;;5055854;28;997;-37
2022/01/04 12:41:23;;;;;;;;;;;23.00;55.70;;;;;;5055317;28;1002;-36
2022/01/04 12:43:50;;;;;;;;;;;23.00;55.50;;;;;;5056306;28;978;-35
2022/01/04 12:46:25;;;;;;;;;;;23.00;55.60;;;;;;5055400;28;942;-35
2022/01/04 12:48:55;;;;;;;;;;;23.00;56.60;;;;;;5056546;28;905;-36
2022/01/04 12:51:23;;;;;;;;;;;23.00;55.40;;;;;;5055756;28;2380;-37
2022/01/04 12:53:50;;;;;;;;;;;23.00;55.40;;;;;;5056936;28;931;-36
2022/01/04 12:56:17;;;;;;;;;;;23.00;55.40;;;;;;5056044;28;1008;-37
2022/01/04 12:58:44;;;;;;;;;;;23.00;55.20;;;;;;5055969;28;994;-36
2022/01/04 13:01:11;;;;;;;;;;;23.10;55.30;;;;;;5055180;28;984;-35
2022/01/04 13:03:38;;;;;;;;;;;23.00;55.20;;;;;;5055604;28;1808;-39
2022/01/04 13:06:07;;;;;;;;;;;23.00;55.30;;;;;;5055586;28;1016;-36
2022/01/04 13:08:35;;;;;;;;;;;23.00;55.20;;;;;;5055770;28;1001;-36
2022/01/04 13:11:03;;;;;;;;;;;23.00;55.20;;;;;;5055893;28;1906;-36
2022/01/04 13:13:30;;;;;;;;;;;23.00;56.40;;;;;;5056155;28;1033;-36
2022/01/04 13:16:18;;;;;;;;;;;23.00;55.30;;;;;;5056552;28;1016;-36
2022/01/04 13:18:44;;;;;;;;;;;23.00;55.20;;;;;;5057013;28;922;-36
2022/01/04 13:21:13;;;;;;;;;;;23.00;55.20;;;;;;5056840;28;954;-35
2022/01/04 13:23:40;;;;;;;;;;;23.00;55.20;;;;;;5056367;28;946;-38
2022/01/04 13:26:09;;;;;;;;;;;23.00;55.20;;;;;;5055019;28;1047;-36
2022/01/04 13:28:36;;;;;;;;;;;23.00;55.30;;;;;;5055145;28;1024;-36
2022/01/04 13:31:03;;;;;;;;;;;23.00;55.10;;;;;;5052783;28;1977;-36
2022/01/04 13:33:29;;;;;;;;;;;23.10;55.10;;;;;;5055665;28;1009;-36
2022/01/04 13:35:57;;;;;;;;;;;23.10;55.30;;;;;;5055388;28;1005;-36
2022/01/04 13:38:26;;;;;;;;;;;23.00;55.30;;;;;;5055400;28;1004;-34
2022/01/04 13:40:55;;;;;;;;;;;23.00;55.50;;;;;;5055635;28;994;-35
2022/01/04 13:43:27;;;;;;;;;;;23.00;55.40;;;;;;5055736;28;1040;-37
2022/01/04 13:45:55;;;;;;;;;;;23.10;55.20;;;;;;5056295;28;1043;-35
2022/01/04 13:48:23;;;;;;;;;;;23.10;55.30;;;;;;5055929;28;1004;-37
2022/01/04 13:50:50;;;;;;;;;;;23.00;55.40;;;;;;5056064;28;1898;-36
2022/01/04 13:53:17;;;;;;;;;;;23.00;55.40;;;;;;5056748;28;942;-36
2022/01/04 13:55:49;;;;;;;;;;;23.00;55.60;;;;;;5055866;28;997;-36
2022/01/04 13:58:33;;;;;;;;;;;23.10;55.60;;;;;;5056444;28;1040;-35
2022/01/04 14:01:10;;;;;;;;;;;23.10;55.50;;;;;;5056073;28;1020;-40
2022/01/04 14:03:37;;;;;;;;;;;23.10;55.50;;;;;;5056197;28;973;-39
2022/01/04 14:06:03;;;;;;;;;;;23.00;55.80;;;;;;5055479;28;1505;-39
2022/01/04 14:08:49;;;;;;;;;;;23.00;55.60;;;;;;5056655;28;1016;-40
2022/01/04 14:11:23;;;;;;;;;;;23.10;55.90;;;;;;5056255;28;1906;-39
2022/01/04 14:13:51;;;;;;;;;;;23.10;56.10;;;;;;5055734;28;1031;-39
2022/01/04 14:16:18;;;;;;;;;;;23.10;56.30;;;;;;5056205;28;1438;-39
2022/01/04 14:19:05;;;;;;;;;;;23.10;56.20;;;;;;5055914;28;1051;-40
2022/01/04 14:21:33;;;;;;;;;;;23.10;56.30;;;;;;5055344;28;1021;-40
2022/01/04 14:24:00;;;;;;;;;;;23.10;56.30;;;;;;5055139;28;1018;-41
2022/01/04 14:26:29;;;;;;;;;;;23.20;56.30;;;;;;5054630;28;1074;-36
2022/01/04 14:28:56;;;;;;;;;;;23.20;56.40;;;;;;5056366;28;1047;-36
2022/01/04 14:31:23;;;;;;;;;;;23.20;57.00;;;;;;5054557;28;1914;-36
2022/01/04 14:33:50;;;;;;;;;;;23.20;56.70;;;;;;5054539;28;1022;-35
2022/01/04 14:36:16;;;;;;;;;;;23.20;56.60;;;;;;5056385;28;997;-36
2022/01/04 14:38:43;;;;;;;;;;;23.20;56.90;;;;;;5054967;28;989;-36
2022/01/04 14:41:11;;;;;;;;;;;23.20;56.70;;;;;;5056165;28;1091;-35
2022/01/04 14:43:39;;;;;;;;;;;23.20;58.00;;;;;;5058962;28;974;-36
2022/01/04 14:46:06;;;;;;;;;;;23.10;56.70;;;;;;5059785;28;1015;-36
2022/01/04 14:48:33;;;;;;;;;;;23.20;57.90;;;;;;5060437;28;917;-36
2022/01/04 14:51:00;;;;;;;;;;;23.30;57.40;;;;;;5059403;28;1902;-38